Thunder radar more information blitzortung!


Radar de pluja more information rain snow radar


Visita la nostra xarxa de llocs de meteo:

Template documentation
and downloads

And another site



No particular awareness of the weather is required.    There are no Weather-warnings

Pagina Historial Weather Underground text

Diari Resum May 25, 2017 Unitats:  Mètric    Imperial   Tant
« Previous Dia
SegĂźent Dia »
Diari Setmana Mensual Anual Personalitzada
  Maxima: Minima: Media:
Temperatura: 34.0 °C 16.4 °C 26.3 °C
Punt de rosada: 13.4 °C 4.8 °C 8.6 °C
Humitat: 62 % 22 % 35 %
Wind Speed: 24.8 km/h 0.0 km/h 6.8 km/h
RĂ fegues de vent: 24.8 km/h - -
Vent:- - SW
Pression baro: 1016.8 hPa 1010.0 hPa -
Precipitacions: 0.0 mm    
Historical Graphs
 
 
Dades de taula per May 25, 2017
Temps Temperatura Punt de rosada Pression baro Vent Wind Speed RĂ fegues de vent Humitat Rainfall Rate (Hourly)
00:00 21.2 °C 6.7 °C 1016.8 hPa WSW 4.7 km/h 4.7 km/h 39 % 0.0 mm
00:05 21.1 °C 6.9 °C 1016.8 hPa SW 3.7 km/h 3.7 km/h 40 % 0.0 mm
00:15 17.0 °C 7.6 °C 1014.8 hPa WSW 1.6 km/h 3.2 km/h 54 % 0.0 mm
00:25 17.2 °C 7.8 °C 1013.8 hPa Calm   4.8 km/h 54 % 0.0 mm
00:35 16.9 °C 8.1 °C 1013.8 hPa Calm   3.2 km/h 56 % 0.0 mm
00:45 17.0 °C 7.9 °C 1014.8 hPa Calm   1.6 km/h 55 % 0.0 mm
00:55 17.0 °C 7.9 °C 1014.8 hPa Calm   1.6 km/h 55 % 0.0 mm
01:05 17.0 °C 7.9 °C 1014.8 hPa Calm     55 % 0.0 mm
01:15 17.1 °C 8.0 °C 1013.8 hPa West 1.6 km/h 3.2 km/h 55 % 0.0 mm
01:25 17.0 °C 7.9 °C 1013.8 hPa WSW 3.2 km/h 3.2 km/h 55 % 0.0 mm
01:35 16.5 °C 7.7 °C 1013.8 hPa SW 1.6 km/h 3.2 km/h 56 % 0.0 mm
01:45 16.5 °C 8.2 °C 1013.8 hPa SW 1.6 km/h 1.6 km/h 58 % 0.0 mm
01:55 16.8 °C 8.5 °C 1013.8 hPa Calm   1.6 km/h 58 % 0.0 mm
02:05 16.6 °C 8.3 °C 1013.8 hPa SSE 1.6 km/h 1.6 km/h 58 % 0.0 mm
02:15 16.7 °C 8.4 °C 1014.8 hPa SSW 1.6 km/h 1.6 km/h 58 % 0.0 mm
02:25 17.1 °C 8.8 °C 1013.8 hPa Calm   1.6 km/h 58 % 0.0 mm
02:35 18.0 °C 9.3 °C 1013.8 hPa Calm     57 % 0.0 mm
02:45 18.7 °C 10.0 °C 1013.8 hPa Calm   1.6 km/h 57 % 0.0 mm
02:55 18.5 °C 9.6 °C 1014.8 hPa Calm   1.6 km/h 56 % 0.0 mm
03:05 18.2 °C 9.3 °C 1014.8 hPa SW 1.6 km/h 3.2 km/h 56 % 0.0 mm
03:15 19.5 °C 9.9 °C 1014.8 hPa South 1.6 km/h 3.2 km/h 54 % 0.0 mm
03:25 20.2 °C 10.3 °C 1014.8 hPa ENE 3.2 km/h 3.2 km/h 53 % 0.0 mm
03:35 20.4 °C 10.5 °C 1014.8 hPa ENE 4.8 km/h 4.8 km/h 53 % 0.0 mm
03:45 21.0 °C 10.8 °C 1013.8 hPa Calm   1.6 km/h 52 % 0.0 mm
03:55 21.7 °C 11.1 °C 1014.8 hPa SSE 1.6 km/h 1.6 km/h 51 % 0.0 mm
04:05 22.8 °C 11.8 °C 1014.8 hPa Calm   3.2 km/h 50 % 0.0 mm
04:15 22.2 °C 11.3 °C 1014.8 hPa SSW 1.6 km/h 3.2 km/h 50 % 0.0 mm
04:25 22.6 °C 11.3 °C 1014.8 hPa SW 3.2 km/h 3.2 km/h 49 % 0.0 mm
04:35 23.5 °C 11.8 °C 1014.8 hPa WSW 1.6 km/h 3.2 km/h 48 % 0.0 mm
04:45 24.2 °C 12.5 °C 1014.8 hPa WSW 1.6 km/h 4.8 km/h 48 % 0.0 mm
04:55 24.4 °C 12.3 °C 1014.8 hPa SW 3.2 km/h 4.8 km/h 47 % 0.0 mm
05:05 24.9 °C 12.5 °C 1014.8 hPa SW 1.6 km/h 4.8 km/h 46 % 0.0 mm
05:15 25.7 °C 12.6 °C 1014.8 hPa SSW 1.6 km/h 4.8 km/h 44 % 0.0 mm
05:25 26.4 °C 13.2 °C 1013.8 hPa SSW 1.6 km/h 3.2 km/h 44 % 0.0 mm
05:35 27.0 °C 13.0 °C 1013.8 hPa SSW 1.6 km/h 4.8 km/h 42 % 0.0 mm
05:45 27.8 °C 13.3 °C 1013.8 hPa South 1.6 km/h 4.8 km/h 41 % 0.0 mm
05:50 27.7 °C 13.3 °C 1013.8 hPa South 1.6 km/h 3.2 km/h 41 % 0.0 mm
10:50 27.7 °C 13.3 °C 1013.8 hPa NE 1.9 km/h 2.3 km/h 41 % 0.0 mm
10:55 27.8 °C 12.9 °C 1013.8 hPa West 6.1 km/h 6.1 km/h 40 % 0.0 mm
11:00 27.4 °C 12.2 °C 1013.8 hPa NNE 5.6 km/h 5.6 km/h 39 % 0.0 mm
11:05 28.0 °C 13.2 °C 1013.8 hPa West 9.0 km/h 9.0 km/h 40 % 0.0 mm
11:10 28.0 °C 12.8 °C 1013.8 hPa WSW 3.7 km/h 3.7 km/h 39 % 0.0 mm
11:15 28.7 °C 13.4 °C 1013.8 hPa SW 5.6 km/h 5.6 km/h 39 % 0.0 mm
11:20 29.6 °C 13.4 °C 1013.8 hPa SSW 5.6 km/h 5.6 km/h 37 % 0.0 mm
11:25 29.7 °C 13.1 °C 1013.8 hPa SSE 3.7 km/h 3.7 km/h 36 % 0.0 mm
11:30 30.0 °C 12.9 °C 1013.8 hPa SW 5.8 km/h 5.8 km/h 35 % 0.0 mm
11:35 30.4 °C 11.8 °C 1013.8 hPa SE 3.7 km/h 3.7 km/h 32 % 0.0 mm
11:40 30.6 °C 12.5 °C 1013.8 hPa SSW 7.4 km/h 7.4 km/h 33 % 0.0 mm
11:41 30.6 °C 12.0 °C 1013.8 hPa SSE 3.9 km/h 3.9 km/h 32 % 0.0 mm
11:46 30.5 °C 11.9 °C 1013.8 hPa West 9.5 km/h 9.5 km/h 32 % 0.0 mm
11:51 30.6 °C 11.6 °C 1013.8 hPa South 4.2 km/h 4.2 km/h 31 % 0.0 mm
11:56 31.0 °C 11.4 °C 1013.8 hPa SSW 11.1 km/h 11.1 km/h 30 % 0.0 mm
12:01 31.3 °C 12.2 °C 1013.8 hPa SSW 7.4 km/h 7.4 km/h 31 % 0.0 mm
12:06 31.0 °C 10.9 °C 1013.8 hPa SSW 7.4 km/h 7.4 km/h 29 % 0.0 mm
12:11 31.1 °C 10.4 °C 1013.8 hPa East 7.4 km/h 7.4 km/h 28 % 0.0 mm
12:16 31.0 °C 10.3 °C 1013.8 hPa SSW 11.1 km/h 11.1 km/h 28 % 0.0 mm
12:21 31.4 °C 11.2 °C 1013.8 hPa SSW 5.6 km/h 5.6 km/h 29 % 0.0 mm
12:26 32.1 °C 11.3 °C 1013.8 hPa NW 3.7 km/h 3.7 km/h 28 % 0.0 mm
12:31 32.2 °C 11.4 °C 1013.8 hPa South 9.3 km/h 9.3 km/h 28 % 0.0 mm
12:36 32.5 °C 11.6 °C 1014.8 hPa SSW 11.1 km/h 11.1 km/h 28 % 0.0 mm
12:41 32.1 °C 10.7 °C 1014.8 hPa WSW 5.6 km/h 5.6 km/h 27 % 0.0 mm
12:46 31.8 °C 10.5 °C 1014.8 hPa SSE 3.7 km/h 3.7 km/h 27 % 0.0 mm
12:51 32.5 °C 11.1 °C 1013.8 hPa SSW 9.3 km/h 9.3 km/h 27 % 0.0 mm
12:56 32.7 °C 11.3 °C 1013.8 hPa NNE 5.3 km/h 5.3 km/h 27 % 0.0 mm
13:01 32.9 °C 11.4 °C 1013.8 hPa WSW 5.6 km/h 5.6 km/h 27 % 0.0 mm
13:06 32.5 °C 10.5 °C 1013.8 hPa SE 3.7 km/h 3.7 km/h 26 % 0.0 mm
13:11 32.7 °C 10.7 °C 1013.8 hPa SSW 3.7 km/h 3.7 km/h 26 % 0.0 mm
13:16 33.0 °C 10.9 °C 1013.8 hPa SW 11.1 km/h 11.1 km/h 26 % 0.0 mm
13:21 33.1 °C 11.0 °C 1012.8 hPa South 9.3 km/h 9.3 km/h 26 % 0.0 mm
13:26 33.3 °C 10.6 °C 1012.8 hPa SW 5.0 km/h 5.0 km/h 25 % 0.0 mm
13:31 34.0 °C 11.8 °C 1012.8 hPa SE 5.6 km/h 5.6 km/h 26 % 0.0 mm
13:36 33.5 °C 11.4 °C 1012.8 hPa West 9.3 km/h 9.3 km/h 26 % 0.0 mm
13:41 33.4 °C 10.7 °C 1012.8 hPa SSW 11.1 km/h 11.1 km/h 25 % 0.0 mm
13:46 33.5 °C 10.8 °C 1012.8 hPa SW 9.3 km/h 9.3 km/h 25 % 0.0 mm
13:51 33.6 °C 10.8 °C 1012.8 hPa SW 7.9 km/h 7.9 km/h 25 % 0.0 mm
13:56 33.4 °C 10.1 °C 1012.8 hPa South 11.1 km/h 11.1 km/h 24 % 0.0 mm
14:02 33.2 °C 9.9 °C 1012.8 hPa SSW 9.3 km/h 9.5 km/h 24 % 0.0 mm
14:07 33.5 °C 10.2 °C 1011.7 hPa WSW 6.9 km/h 6.9 km/h 24 % 0.0 mm
14:12 33.1 °C 9.2 °C 1011.7 hPa SW 11.1 km/h 11.1 km/h 23 % 0.0 mm
14:17 33.1 °C 9.2 °C 1011.7 hPa WSW 14.8 km/h 14.8 km/h 23 % 0.0 mm
14:22 33.1 °C 9.2 °C 1011.7 hPa SW 9.3 km/h 9.3 km/h 23 % 0.0 mm
14:27 33.5 °C 9.5 °C 1011.7 hPa SW 14.5 km/h 14.5 km/h 23 % 0.0 mm
14:32 33.3 °C 9.3 °C 1011.7 hPa SW 14.8 km/h 14.8 km/h 23 % 0.0 mm
14:37 32.8 °C 8.3 °C 1011.7 hPa SSW 14.8 km/h 14.8 km/h 22 % 0.0 mm
14:42 32.7 °C 8.2 °C 1011.7 hPa SW 16.7 km/h 16.7 km/h 22 % 0.0 mm
14:47 33.1 °C 8.6 °C 1011.7 hPa SW 3.7 km/h 5.8 km/h 22 % 0.0 mm
14:52 33.2 °C 8.6 °C 1011.7 hPa SSE 11.4 km/h 11.4 km/h 22 % 0.0 mm
14:57 33.0 °C 8.4 °C 1011.7 hPa SSE 11.1 km/h 11.1 km/h 22 % 0.0 mm
15:02 33.1 °C 8.6 °C 1011.7 hPa SW 9.3 km/h 9.3 km/h 22 % 0.0 mm
15:07 32.8 °C 8.3 °C 1011.7 hPa SW 9.3 km/h 9.3 km/h 22 % 0.0 mm
15:12 32.7 °C 8.8 °C 1011.7 hPa SSW 16.7 km/h 16.7 km/h 23 % 0.0 mm
15:17 32.6 °C 8.8 °C 1011.7 hPa SW 9.3 km/h 9.3 km/h 23 % 0.0 mm
15:22 32.5 °C 8.7 °C 1011.7 hPa WNW 9.3 km/h 9.3 km/h 23 % 0.0 mm
15:27 31.7 °C 8.0 °C 1011.7 hPa SW 16.7 km/h 16.7 km/h 23 % 0.0 mm
15:32 31.8 °C 8.7 °C 1011.7 hPa SW 16.7 km/h 16.7 km/h 24 % 0.0 mm
15:37 32.3 °C 8.5 °C 1011.7 hPa SSW 9.3 km/h 9.3 km/h 23 % 0.0 mm
15:42 31.9 °C 8.8 °C 1011.7 hPa SSE 11.1 km/h 11.1 km/h 24 % 0.0 mm
15:47 31.7 °C 8.7 °C 1011.7 hPa SW 20.4 km/h 20.4 km/h 24 % 0.0 mm
15:52 31.4 °C 8.4 °C 1011.7 hPa SW 24.1 km/h 24.1 km/h 24 % 0.0 mm
15:57 31.6 °C 8.6 °C 1011.7 hPa SSW 7.4 km/h 7.4 km/h 24 % 0.0 mm
16:02 31.8 °C 8.7 °C 1011.7 hPa SW 14.8 km/h 14.8 km/h 24 % 0.0 mm
16:07 31.5 °C 8.5 °C 1011.7 hPa SW 11.1 km/h 11.1 km/h 24 % 0.0 mm
16:12 31.6 °C 8.6 °C 1011.7 hPa SSW 13.0 km/h 13.0 km/h 24 % 0.0 mm
16:17 31.5 °C 8.5 °C 1011.7 hPa SW 18.5 km/h 18.5 km/h 24 % 0.0 mm
16:22 31.4 °C 8.4 °C 1010.7 hPa SSW 16.7 km/h 16.7 km/h 24 % 0.0 mm
16:27 31.5 °C 8.5 °C 1010.7 hPa South 11.1 km/h 11.1 km/h 24 % 0.0 mm
16:32 31.1 °C 8.2 °C 1010.7 hPa SW 18.5 km/h 18.5 km/h 24 % 0.0 mm
16:37 31.4 °C 9.0 °C 1010.7 hPa SW 10.3 km/h 10.3 km/h 25 % 0.0 mm
16:42 31.7 °C 9.3 °C 1010.7 hPa SW 11.1 km/h 11.1 km/h 25 % 0.0 mm
16:47 31.4 °C 9.0 °C 1010.7 hPa SW 18.5 km/h 18.5 km/h 25 % 0.0 mm
16:52 31.2 °C 8.8 °C 1010.7 hPa South 13.7 km/h 13.7 km/h 25 % 0.0 mm
16:57 31.1 °C 8.7 °C 1010.7 hPa SW 13.0 km/h 13.0 km/h 25 % 0.0 mm
17:02 30.8 °C 8.5 °C 1010.7 hPa West 14.8 km/h 14.8 km/h 25 % 0.0 mm
17:07 31.0 °C 8.7 °C 1010.7 hPa SW 16.7 km/h 16.7 km/h 25 % 0.0 mm
17:12 30.9 °C 8.6 °C 1010.7 hPa SW 11.4 km/h 11.4 km/h 25 % 0.0 mm
17:17 30.5 °C 8.2 °C 1010.7 hPa SW 16.7 km/h 16.7 km/h 25 % 0.0 mm
17:22 31.0 °C 8.7 °C 1010.7 hPa West 11.4 km/h 11.4 km/h 25 % 0.0 mm
17:27 31.1 °C 8.7 °C 1010.7 hPa SSE 13.7 km/h 13.7 km/h 25 % 0.0 mm
17:32 30.9 °C 9.2 °C 1010.7 hPa SW 17.2 km/h 17.2 km/h 26 % 0.0 mm
17:37 30.8 °C 9.1 °C 1010.7 hPa WSW 13.7 km/h 13.7 km/h 26 % 0.0 mm
17:42 30.4 °C 8.2 °C 1010.7 hPa SW 16.7 km/h 16.7 km/h 25 % 0.0 mm
17:47 30.2 °C 8.0 °C 1010.7 hPa SSW 11.1 km/h 11.1 km/h 25 % 0.0 mm
17:52 30.1 °C 7.9 °C 1011.7 hPa SSW 14.8 km/h 14.8 km/h 25 % 0.0 mm
17:57 30.1 °C 7.9 °C 1011.7 hPa SSW 11.1 km/h 11.1 km/h 25 % 0.0 mm
18:02 30.1 °C 7.9 °C 1011.7 hPa South 14.8 km/h 14.8 km/h 25 % 0.0 mm
18:07 29.7 °C 7.6 °C 1010.7 hPa West 9.5 km/h 9.5 km/h 25 % 0.0 mm
18:12 29.7 °C 7.6 °C 1010.7 hPa NW 13.0 km/h 13.0 km/h 25 % 0.0 mm
18:17 29.6 °C 7.5 °C 1010.7 hPa West 14.8 km/h 14.8 km/h 25 % 0.0 mm
18:22 29.5 °C 7.4 °C 1010.7 hPa WSW 14.0 km/h 14.0 km/h 25 % 0.0 mm
18:27 29.3 °C 7.2 °C 1010.7 hPa WSW 13.0 km/h 13.0 km/h 25 % 0.0 mm
18:32 29.2 °C 7.2 °C 1010.7 hPa WSW 14.8 km/h 14.8 km/h 25 % 0.0 mm
18:37 28.9 °C 6.9 °C 1010.7 hPa SSW 18.5 km/h 18.5 km/h 25 % 0.0 mm
18:42 28.9 °C 6.9 °C 1010.7 hPa SW 13.0 km/h 13.0 km/h 25 % 0.0 mm
18:47 28.7 °C 6.7 °C 1010.7 hPa SW 15.6 km/h 15.6 km/h 25 % 0.0 mm
18:52 28.7 °C 6.7 °C 1010.0 hPa WSW 16.7 km/h 16.7 km/h 25 % 0.0 mm
18:57 28.6 °C 6.6 °C 1010.0 hPa SSE 24.8 km/h 24.8 km/h 25 % 0.0 mm
19:02 28.4 °C 5.9 °C 1010.0 hPa SW 11.1 km/h 11.1 km/h 24 % 0.0 mm
19:07 28.3 °C 5.8 °C 1010.0 hPa SW 16.4 km/h 16.4 km/h 24 % 0.0 mm
19:12 28.2 °C 5.7 °C 1010.0 hPa West 19.5 km/h 19.5 km/h 24 % 0.0 mm
19:17 28.1 °C 5.6 °C 1010.0 hPa SW 20.4 km/h 20.4 km/h 24 % 0.0 mm
19:22 28.0 °C 5.6 °C 1010.0 hPa SSW 14.8 km/h 14.8 km/h 24 % 0.0 mm
19:25 21.3 °C 8.2 °C 1012.8 hPa WSW 1.6 km/h 3.2 km/h 43 % 0.0 mm
19:27 28.0 °C 5.6 °C 1010.0 hPa SSW 16.7 km/h 16.7 km/h 24 % 0.0 mm
19:32 27.9 °C 6.1 °C 1010.0 hPa SW 11.1 km/h 11.1 km/h 25 % 0.0 mm
19:35 21.2 °C 8.4 °C 1012.8 hPa Calm   3.2 km/h 44 % 0.0 mm
19:37 27.8 °C 5.9 °C 1010.0 hPa South 7.4 km/h 7.4 km/h 25 % 0.0 mm
19:42 27.8 °C 5.9 °C 1010.0 hPa SW 7.4 km/h 7.4 km/h 25 % 0.0 mm
19:45 21.1 °C 8.4 °C 1012.8 hPa Calm     44 % 0.0 mm
19:47 27.6 °C 5.8 °C 1010.0 hPa WSW 9.3 km/h 9.3 km/h 25 % 0.0 mm
19:52 27.5 °C 5.7 °C 1010.0 hPa WSW 9.3 km/h 9.3 km/h 25 % 0.0 mm
19:55 20.6 °C 8.6 °C 1013.8 hPa WNW 1.6 km/h 1.6 km/h 46 % 0.0 mm
19:57 27.4 °C 5.6 °C 1010.0 hPa NW 9.7 km/h 9.7 km/h 25 % 0.0 mm
20:02 27.2 °C 5.4 °C 1010.0 hPa SW 11.1 km/h 11.1 km/h 25 % 0.0 mm
20:05 20.3 °C 8.6 °C 1013.8 hPa ENE 1.6 km/h 3.2 km/h 47 % 0.0 mm
20:07 27.1 °C 5.9 °C 1010.0 hPa SSW 7.4 km/h 7.4 km/h 26 % 0.0 mm
20:12 27.0 °C 5.8 °C 1010.0 hPa South 7.4 km/h 7.4 km/h 26 % 0.0 mm
20:15 20.0 °C 8.7 °C 1013.8 hPa Calm     48 % 0.0 mm
20:17 26.9 °C 5.8 °C 1010.0 hPa SW 3.7 km/h 3.7 km/h 26 % 0.0 mm
20:22 26.8 °C 5.7 °C 1010.0 hPa SSW 9.3 km/h 9.3 km/h 26 % 0.0 mm
20:25 19.7 °C 8.7 °C 1013.8 hPa Calm     49 % 0.0 mm
20:27 26.7 °C 5.6 °C 1010.0 hPa SW 5.6 km/h 5.6 km/h 26 % 0.0 mm
20:32 26.6 °C 5.5 °C 1010.0 hPa SW 9.3 km/h 9.3 km/h 26 % 0.0 mm
20:35 19.7 °C 8.7 °C 1013.8 hPa Calm   1.6 km/h 49 % 0.0 mm
20:37 26.5 °C 5.4 °C 1010.0 hPa SW 4.7 km/h 4.7 km/h 26 % 0.0 mm
20:42 26.3 °C 5.3 °C 1010.0 hPa SSW 7.4 km/h 7.4 km/h 26 % 0.0 mm
20:45 19.7 °C 8.7 °C 1012.8 hPa Calm     49 % 0.0 mm
20:47 26.0 °C 5.0 °C 1010.0 hPa SSW 5.6 km/h 5.6 km/h 26 % 0.0 mm
20:50 19.6 °C 8.6 °C 1012.8 hPa Calm     49 % 0.0 mm
20:52 25.8 °C 5.4 °C 1010.0 hPa SW 1.9 km/h 1.9 km/h 27 % 0.0 mm
20:57 25.7 °C 5.3 °C 1010.0 hPa SW 3.7 km/h 3.7 km/h 27 % 0.0 mm
20:58 25.6 °C 5.2 °C 1010.0 hPa SW 4.2 km/h 4.2 km/h 27 % 0.0 mm
21:00 19.4 °C 8.7 °C 1013.8 hPa Calm     50 % 0.0 mm
21:03 25.4 °C 5.1 °C 1010.0 hPa SSW 3.7 km/h 3.7 km/h 27 % 0.0 mm
21:08 25.2 °C 4.9 °C 1010.0 hPa SW 3.7 km/h 3.7 km/h 27 % 0.0 mm
21:10 19.2 °C 8.5 °C 1013.8 hPa Calm     50 % 0.0 mm
21:13 25.1 °C 4.8 °C 1010.0 hPa SW 3.7 km/h 3.7 km/h 27 % 0.0 mm
21:18 24.9 °C 5.1 °C 1010.0 hPa WSW 3.9 km/h 3.9 km/h 28 % 0.0 mm
21:23 24.8 °C 5.6 °C 1010.0 hPa Calm   1.4 km/h 29 % 0.0 mm
21:28 24.7 °C 5.4 °C 1010.0 hPa West 4.2 km/h   29 % 0.0 mm
21:30 19.2 °C 8.8 °C 1013.8 hPa Calm     51 % 0.0 mm
21:33 24.5 °C 5.3 °C 1010.0 hPa WSW 3.9 km/h 3.9 km/h 29 % 0.0 mm
21:38 24.4 °C 5.2 °C 1010.7 hPa SW 7.4 km/h 7.4 km/h 29 % 0.0 mm
21:40 19.0 °C 8.9 °C 1013.8 hPa Calm     52 % 0.0 mm
21:43 24.3 °C 5.1 °C 1010.7 hPa SW 3.7 km/h 3.7 km/h 29 % 0.0 mm
21:48 24.2 °C 5.1 °C 1010.7 hPa WSW 2.6 km/h 2.6 km/h 29 % 0.0 mm
21:50 19.0 °C 9.2 °C 1013.8 hPa Calm     53 % 0.0 mm
21:58 24.1 °C 5.4 °C 1010.7 hPa WSW 3.7 km/h 3.7 km/h 30 % 0.0 mm
22:03 24.0 °C 5.3 °C 1010.7 hPa West 3.7 km/h 3.7 km/h 30 % 0.0 mm
22:08 23.7 °C 5.1 °C 1011.7 hPa WSW 3.7 km/h 3.7 km/h 30 % 0.0 mm
22:10 19.0 °C 9.2 °C 1013.8 hPa Calm     53 % 0.0 mm
22:13 23.5 °C 4.9 °C 1011.7 hPa West 4.7 km/h 4.7 km/h 30 % 0.0 mm
22:18 23.3 °C 5.2 °C 1011.7 hPa SW 4.7 km/h 4.7 km/h 31 % 0.0 mm
22:20 18.5 °C 9.3 °C 1013.8 hPa Calm   1.6 km/h 55 % 0.0 mm
22:23 23.2 °C 5.1 °C 1011.7 hPa SW 2.3 km/h 2.3 km/h 31 % 0.0 mm
22:28 23.0 °C 5.4 °C 1011.7 hPa SW 3.7 km/h 3.7 km/h 32 % 0.0 mm
22:30 17.9 °C 8.7 °C 1013.8 hPa NE 1.6 km/h 3.2 km/h 55 % 0.0 mm
22:33 22.9 °C 5.8 °C 1011.7 hPa WSW 3.9 km/h 3.9 km/h 33 % 0.0 mm
22:38 22.8 °C 5.7 °C 1011.7 hPa West 5.6 km/h 5.6 km/h 33 % 0.0 mm
22:40 17.6 °C 8.7 °C 1013.8 hPa Calm     56 % 0.0 mm
22:43 22.8 °C 6.1 °C 1011.7 hPa West 5.6 km/h 5.6 km/h 34 % 0.0 mm
22:48 22.8 °C 6.6 °C 1011.7 hPa WSW 3.7 km/h 3.7 km/h 35 % 0.0 mm
22:50 17.1 °C 8.5 °C 1013.8 hPa Calm   3.2 km/h 57 % 0.0 mm
22:53 22.7 °C 6.8 °C 1011.7 hPa WSW 3.9 km/h 3.9 km/h 36 % 0.0 mm
22:58 22.6 °C 7.2 °C 1011.7 hPa WSW 3.7 km/h 3.7 km/h 37 % 0.0 mm
23:00 17.0 °C 8.7 °C 1013.8 hPa Calm   1.6 km/h 58 % 0.0 mm
23:03 22.4 °C 7.0 °C 1011.7 hPa West 3.9 km/h 3.9 km/h 37 % 0.0 mm
23:08 22.3 °C 7.3 °C 1010.7 hPa West 2.3 km/h 2.3 km/h 38 % 0.0 mm
23:10 16.8 °C 9.0 °C 1013.8 hPa Calm     60 % 0.0 mm
23:13 22.3 °C 7.3 °C 1010.7 hPa WSW 3.9 km/h 3.9 km/h 38 % 0.0 mm
23:18 22.2 °C 7.6 °C 1010.7 hPa SW 3.7 km/h 3.7 km/h 39 % 0.0 mm
23:20 16.6 °C 9.1 °C 1013.8 hPa Calm   3.2 km/h 61 % 0.0 mm
23:23 22.1 °C 7.5 °C 1011.7 hPa SW 3.7 km/h 3.7 km/h 39 % 0.0 mm
23:28 22.0 °C 7.8 °C 1011.7 hPa West 3.7 km/h 3.7 km/h 40 % 0.0 mm
23:30 16.5 °C 8.9 °C 1014.8 hPa NE 1.6 km/h 3.2 km/h 61 % 0.0 mm
23:33 22.0 °C 7.8 °C 1011.7 hPa West 3.7 km/h 3.7 km/h 40 % 0.0 mm
23:38 21.9 °C 7.7 °C 1011.7 hPa West 3.7 km/h 3.7 km/h 40 % 0.0 mm
23:40 16.4 °C 9.1 °C 1013.8 hPa Calm   3.2 km/h 62 % 0.0 mm
23:43 21.9 °C 8.1 °C 1011.7 hPa West 2.6 km/h 2.6 km/h 41 % 0.0 mm
23:48 21.8 °C 7.9 °C 1011.7 hPa SW 1.9 km/h   41 % 0.0 mm
23:50 16.4 °C 8.8 °C 1013.8 hPa SW 1.6 km/h 3.2 km/h 61 % 0.0 mm
23:53 21.8 °C 7.9 °C 1011.7 hPa West 3.7 km/h 3.7 km/h 41 % 0.0 mm
23:58 21.7 °C 8.2 °C 1011.7 hPa West 1.9 km/h   42 % 0.0 mm
Meteo Sesrovires
Elogis d' Weather Underground - 3.75 mb

Guio original per  Jim McMurry - jmcmurry@mwt.net Adaptat per a la plantilla per  Wim van der Kuil - Leuven-Template.eu

Trobareu la nostra informacio del temps tambe a:

Weather Underground

AWEKAS